Latest Weather Observations for Hopetoun North

IDW60801

Issued at 10:05 am WST Friday 21 November 2014 (issued every 30 minutes, with the page automatically refreshed every 10 minutes)

About weather observations | Map of weather stations | Latest weather observations for WA | Other Formats
Station Details ID: 009961 Name: HOPETOUN NORTH Lat: -33.93 Lon: 120.13 Height: 26.0 m
Data from the previous 72 hours. | See also: Recent months at Hopetoun North
Date/Time
WST
Temp
°C
App
Temp
°C
Dew
Point
Rel
Hum
%
Delta-T
°C
Wind Press
QNH
hPa
Press
MSL
hPa
Rain
since 9 am
mm
Dir
 
Spd
km/h
Gust
km/h
Spd
kts
Gust
kts
21/10:00am 17.8 15.1 15.6 87 1.3 SW 24 35 13 19 1008.9 1008.9 0.0
21/09:30am 20.4 19.6 16.0 76 2.6 SSW 15 22 8 12 1008.7 1008.7 0.0
21/09:00am 19.8 18.4 14.4 71 3.1 SW 15 20 8 11 1008.8 1008.8 0.0
21/08:30am 19.1 17.5 13.9 72 3.0 WSW 15 19 8 10 1008.8 1008.8 0.0
21/08:00am 19.6 18.0 13.8 69 3.3 W 15 24 8 13 1008.8 1008.8 0.0
21/07:30am 18.9 16.3 13.3 70 3.2 W 19 24 10 13 1008.7 1008.7 0.0
21/07:00am 18.0 15.7 13.1 73 2.8 WNW 17 30 9 16 1008.5 1008.5 0.0
21/06:30am 17.5 15.5 12.8 74 2.6 WNW 15 30 8 16 1008.3 1008.3 0.0
21/06:00am 16.9 14.4 12.2 74 2.6 WNW 17 24 9 13 1008.1 1008.1 0.0
21/05:30am 16.6 14.8 12.0 74 2.5 WNW 13 19 7 10 1008.0 1008.0 0.0
21/05:00am 16.6 13.9 11.7 73 2.7 WNW 17 28 9 15 1007.8 1007.8 0.0
21/04:30am 16.3 13.8 11.2 72 2.7 WNW 15 24 8 13 1007.6 1007.6 0.0
21/04:00am 16.1 14.4 11.3 73 2.6 WNW 11 19 6 10 1007.4 1007.4 0.0
21/03:30am 15.9 13.4 11.1 73 2.6 W 15 24 8 13 1007.3 1007.3 0.0
21/03:00am 16.5 14.0 11.0 70 3.0 WNW 15 26 8 14 1007.3 1007.3 0.0
21/02:30am 16.5 13.5 10.6 68 3.1 WNW 17 22 9 12 1007.2 1007.2 0.0
21/02:00am 17.0 13.3 10.1 64 3.7 WNW 20 30 11 16 1007.2 1007.2 0.0
21/01:30am 17.4 13.7 10.3 63 3.8 W 20 33 11 18 1007.4 1007.4 0.0
21/01:00am 17.1 14.4 10.2 64 3.7 WNW 15 28 8 15 1007.5 1007.5 0.0
21/12:30am 17.5 14.4 10.4 63 3.8 WNW 17 33 9 18 1007.7 1007.7 0.0
21/12:00am 16.4 15.4 12.4 77 2.2 NW 9 17 5 9 1008.2 1008.2 0.0
 
Date/Time
WST
Temp
°C
App
Temp
°C
Dew
Point
Rel
Hum
%
Delta-T
°C
Wind Press
QNH
hPa
Press
MSL
hPa
Rain
since 9 am
mm
Dir
 
Spd
km/h
Gust
km/h
Spd
kts
Gust
kts
20/11:30pm 15.5 15.8 14.9 96 0.3 N 7 9 4 5 1008.6 1008.6 0.0
20/11:00pm 15.7 15.8 15.5 99 0.1 N 9 11 5 6 1008.9 1008.9 0.0
20/10:30pm 15.6 15.9 15.1 97 0.3 N 7 9 4 5 1008.9 1008.9 0.0
20/10:00pm 15.6 15.8 14.8 95 0.5 N 7 7 4 4 1009.1 1009.1 0.0
20/09:30pm 16.5 18.0 14.7 89 1.0 CALM 0 2 0 1 1009.1 1009.1 0.0
20/09:00pm 16.6 17.4 14.8 89 1.0 NE 4 6 2 3 1009.0 1009.0 0.0
20/08:30pm 17.5 18.0 15.0 85 1.5 ESE 6 7 3 4 1008.7 1008.7 0.0
20/08:00pm 17.6 18.1 15.0 85 1.5 SSE 6 9 3 5 1008.4 1008.4 0.0
20/07:30pm 18.1 17.8 15.4 84 1.6 S 11 17 6 9 1008.2 1008.2 0.0
20/07:00pm 18.3 17.0 15.9 86 1.4 S 17 22 9 12 1007.9 1007.9 0.0
20/06:30pm 18.8 17.4 16.6 87 1.3 S 19 26 10 14 1007.6 1007.6 0.0
20/06:00pm 19.4 18.4 17.5 89 1.2 S 19 28 10 15 1007.1 1007.1 0.0
20/05:30pm 22.3 23.1 15.9 67 3.9 SSE 6 11 3 6 1006.5 1006.5 0.0
20/05:00pm 22.1 22.5 16.4 70 3.5 SSE 9 13 5 7 1006.3 1006.3 0.0
20/04:30pm 22.7 21.5 15.0 61 4.6 S 15 20 8 11 1006.4 1006.4 0.0
20/04:00pm 22.2 20.3 15.3 65 4.1 S 19 26 10 14 1006.6 1006.6 0.0
20/03:30pm 23.2 19.8 14.7 58 5.0 SSW 26 41 14 22 1006.4 1006.4 0.0
20/03:00pm 27.4 21.4 8.8 31 10.2 W 30 35 16 19 1006.6 1006.6 0.0
20/02:30pm 28.5 23.7 8.7 29 10.9 WNW 24 41 13 22 1007.1 1007.1 0.0
20/02:16pm 27.5 21.8 8.4 30 10.4 W 28 46 15 25 1007.4 1007.4 0.0
20/02:00pm 27.7 22.8 10.0 33 9.9 W 26 41 14 22 1007.5 1007.5 0.0
20/01:32pm 27.2 21.4 9.5 33 9.8 W 30 48 16 26 1007.8 1007.8 0.0
20/01:30pm 26.8 21.2 8.7 32 9.9 W 28 46 15 25 1007.9 1007.9 0.0
20/01:00pm 26.9 21.4 9.3 33 9.7 W 28 46 15 25 1008.0 1008.0 0.0
20/12:30pm 27.1 23.4 10.3 35 9.4 WNW 20 35 11 19 1008.3 1008.3 0.0
20/12:00pm 25.9 22.4 10.9 39 8.5 WSW 20 26 11 14 1008.5 1008.5 0.0
20/11:30am 23.9 20.6 11.6 46 6.9 W 20 30 11 16 1009.0 1009.0 0.0
20/11:00am 24.4 20.9 11.0 43 7.5 WNW 20 39 11 21 1009.4 1009.4 0.0
20/10:30am 24.7 20.9 12.3 46 7.1 WNW 24 39 13 21 1009.9 1009.9 0.0
20/10:00am 24.1 21.0 13.3 51 6.3 WNW 22 35 12 19 1010.4 1010.4 0.0
20/09:30am 23.7 21.3 13.8 53 5.8 WNW 19 28 10 15 1010.7 1010.7 0.0
20/09:00am 22.7 21.1 15.0 61 4.6 NW 17 32 9 17 1011.0 1011.0 0.0
20/08:30am 21.6 19.2 14.3 63 4.3 NNW 20 33 11 18 1010.9 1010.9 0.0
20/08:00am 20.8 18.3 14.2 66 3.8 NNW 20 28 11 15 1011.3 1011.3 0.0
20/07:30am 19.5 17.0 14.1 71 3.1 N 20 30 11 16 1011.6 1011.6 0.0
20/07:00am 17.8 16.0 13.3 75 2.5 N 15 22 8 12 1011.7 1011.7 0.0
20/06:30am 15.3 14.1 12.8 85 1.4 NNE 11 15 6 8 1011.8 1011.8 0.0
20/06:00am 14.8 12.2 12.1 84 1.5 N 17 22 9 12 1011.8 1011.8 0.0
20/05:30am 13.6 13.1 12.8 95 0.4 N 7 11 4 6 1011.8 1011.8 0.0
20/05:00am 12.6 12.0 12.4 99 0.1 N 7 11 4 6 1011.7 1011.7 0.0
20/04:30am 12.9 12.9 12.3 96 0.3 NE 4 7 2 4 1011.9 1011.9 0.0
20/04:00am 12.9 12.6 12.6 98 0.2 N 6 9 3 5 1012.3 1012.3 0.0
20/03:30am 12.8 12.2 12.3 97 0.3 N 7 11 4 6 1012.4 1012.4 0.0
20/03:00am 12.8 12.4 12.3 97 0.3 N 6 9 3 5 1012.5 1012.5 0.0
20/02:30am 12.7 12.2 12.1 96 0.3 N 6 7 3 4 1012.6 1012.6 0.0
20/02:00am 12.9 12.5 12.3 96 0.3 N 6 7 3 4 1012.9 1012.9 0.0
20/01:30am 13.0 12.6 12.4 96 0.3 N 6 9 3 5 1013.3 1013.3 0.0
20/01:00am 12.9 12.5 12.3 96 0.3 N 6 9 3 5 1013.3 1013.3 0.0
20/12:30am 12.8 12.4 12.5 98 0.2 N 6 9 3 5 1013.7 1013.7 0.0
20/12:00am 13.0 12.6 12.5 97 0.3 N 6 7 3 4 1014.1 1014.1 0.0
 
Date/Time
WST
Temp
°C
App
Temp
°C
Dew
Point
Rel
Hum
%
Delta-T
°C
Wind Press
QNH
hPa
Press
MSL
hPa
Rain
since 9 am
mm
Dir
 
Spd
km/h
Gust
km/h
Spd
kts
Gust
kts
19/11:30pm 13.2 12.9 12.7 97 0.3 N 6 7 3 4 1014.5 1014.5 0.0
19/11:00pm 13.7 13.8 12.8 94 0.5 N 4 6 2 3 1014.6 1014.6 0.0
19/10:30pm 14.0 14.1 12.6 91 0.8 N 4 6 2 3 1014.9 1014.9 0.0
19/10:00pm 14.2 13.9 12.8 91 0.8 NNE 6 6 3 3 1014.7 1014.7 0.0
19/09:30pm 14.6 14.9 13.3 92 0.7 NNE 4 4 2 2 1015.2 1015.2 0.0
19/09:00pm 14.5 14.7 12.9 90 0.9 NNE 4 4 2 2 1015.1 1015.1 0.0
19/08:30pm 15.3 14.8 12.2 82 1.7 SSE 6 7 3 4 1015.0 1015.0 0.0
19/08:00pm 15.6 15.3 12.7 83 1.6 ESE 6 6 3 3 1014.8 1014.8 0.0
19/07:30pm 15.4 15.0 12.3 82 1.7 ESE 6 7 3 4 1014.5 1014.5 0.0
19/07:00pm 15.7 15.3 12.3 80 1.9 SE 6 7 3 4 1014.4 1014.4 0.0
19/06:30pm 16.3 15.8 12.5 78 2.1 SSE 7 9 4 5 1013.9 1013.9 0.0
19/06:00pm 16.6 15.7 12.6 77 2.2 SSE 9 13 5 7 1013.8 1013.8 0.0
19/05:30pm 17.3 15.6 12.4 73 2.7 SSE 13 19 7 10 1013.5 1013.5 0.0
19/05:00pm 17.1 15.0 12.4 74 2.6 S 15 20 8 11 1013.2 1013.2 0.0
19/04:30pm 17.6 15.5 12.5 72 2.8 S 15 22 8 12 1013.1 1013.1 0.0
19/04:00pm 17.9 15.6 13.0 73 2.8 SSE 17 22 9 12 1013.1 1013.1 0.0
19/03:30pm 18.6 16.4 13.2 71 3.1 SSE 17 26 9 14 1013.0 1013.0 0.0
19/03:00pm 18.7 16.5 13.3 71 3.1 SSE 17 22 9 12 1012.7 1012.7 0.0
19/02:30pm 18.8 16.6 13.2 70 3.2 SSE 17 26 9 14 1013.0 1013.0 0.0
19/02:00pm 19.4 17.2 14.4 73 2.9 S 19 26 10 14 1013.2 1013.2 0.0
19/01:30pm 19.2 17.7 15.3 78 2.3 SSE 17 26 9 14 1013.1 1013.1 0.0
19/01:00pm 19.9 18.2 14.7 72 3.0 S 17 22 9 12 1012.9 1012.9 0.0
19/12:30pm 19.7 17.8 14.3 71 3.1 S 17 22 9 12 1012.7 1012.7 0.0
19/12:00pm 18.6 16.3 13.0 70 3.2 S 17 26 9 14 1013.1 1013.1 0.0
19/11:30am 18.8 16.8 13.9 73 2.8 S 17 22 9 12 1013.2 1013.2 0.0
19/11:00am 19.4 17.7 14.6 74 2.8 S 17 22 9 12 1013.4 1013.4 0.0
19/10:30am 19.8 18.7 15.4 76 2.6 S 15 20 8 11 1013.5 1013.5 0.0
19/10:00am 18.4 16.5 14.3 77 2.4 S 17 22 9 12 1013.7 1013.7 0.0
19/09:30am 18.0 15.8 14.3 79 2.1 SSW 19 26 10 14 1013.6 1013.6 0.0
19/09:00am 17.4 15.7 14.7 84 1.6 S 17 22 9 12 1013.3 1013.3 7.2
19/08:30am 17.2 15.6 15.0 87 1.3 S 17 22 9 12 1013.1 1013.1 7.2
19/08:00am 16.7 15.4 15.7 94 0.6 S 17 24 9 13 1013.3 1013.3 7.2
19/07:30am 16.6 15.8 16.1 97 0.3 S 15 20 8 11 1012.6 1012.6 7.2
19/07:00am 16.4 15.4 15.6 95 0.5 SSW 15 19 8 10 1012.5 1012.5 7.2
19/06:30am 16.2 15.0 16.2 100 0.0 SSW 17 26 9 14 1012.3 1012.3 7.2
19/06:00am 16.0 15.8 15.8 99 0.1 SSW 11 17 6 9 1012.3 1012.3 7.0
19/05:30am 16.0 16.9 16.0 100 0.0 WSW 6 9 3 5 1011.7 1011.7 6.8
19/05:00am 16.1 15.3 16.1 100 0.0 WSW 15 24 8 13 1011.6 1011.6 6.6
19/04:30am 17.1 16.4 14.4 84 1.5 SSW 11 15 6 8 1011.0 1011.0 6.2
19/04:00am 17.1 16.0 14.2 83 1.7 SW 13 17 7 9 1010.8 1010.8 6.2
19/03:30am 17.0 16.4 14.6 86 1.4 SSW 11 17 6 9 1010.7 1010.7 6.2
19/03:00am 17.1 15.1 14.9 87 1.3 SW 19 26 10 14 1010.8 1010.8 6.2
19/02:30am 17.1 15.0 14.7 86 1.4 SSW 19 24 10 13 1010.3 1010.3 6.2
19/02:00am 17.2 15.7 15.2 88 1.2 SSW 17 24 9 13 1010.2 1010.2 6.2
19/01:30am 17.1 15.5 14.9 87 1.3 SSW 17 20 9 11 1010.0 1010.0 6.2
19/01:00am 17.2 15.7 15.4 89 1.1 SSW 17 20 9 11 1010.4 1010.4 6.2
19/12:30am 17.2 15.9 15.7 91 0.9 SSW 17 22 9 12 1010.0 1010.0 6.2
19/12:00am 17.2 15.6 16.1 93 0.7 SSW 19 26 10 14 1010.0 1010.0 6.2
 
Date/Time
WST
Temp
°C
App
Temp
°C
Dew
Point
Rel
Hum
%
Delta-T
°C
Wind Press
QNH
hPa
Press
MSL
hPa
Rain
since 9 am
mm
Dir
 
Spd
km/h
Gust
km/h
Spd
kts
Gust
kts
18/11:30pm 17.4 16.3 16.3 93 0.7 SSW 17 22 9 12 1010.5 1010.5 6.2
18/11:00pm 17.2 15.7 16.4 95 0.5 SW 19 24 10 13 1010.9 1010.9 6.2
18/10:30pm 17.1 16.1 16.5 96 0.4 SW 17 22 9 12 1010.3 1010.3 6.2
18/10:00pm 17.1 16.5 16.6 97 0.3 SW 15 20 8 11 1010.6 1010.6 6.2
18/09:30pm 17.1 16.2 16.8 98 0.2 SW 17 20 9 11 1010.7 1010.7 6.2
18/09:00pm 17.2 16.2 16.7 97 0.3 SW 17 24 9 13 1010.8 1010.8 6.2
18/08:30pm 17.4 17.0 17.2 99 0.1 SW 15 20 8 11 1010.5 1010.5 6.2
18/08:00pm 17.3 17.3 17.3 100 0.0 SW 13 17 7 9 1010.1 1010.1 6.2
18/07:30pm 17.3 17.0 17.3 100 0.0 SSW 15 20 8 11 1009.4 1009.4 6.2
18/07:00pm 17.3 16.6 17.3 100 0.0 SSW 17 20 9 11 1008.6 1008.6 6.2
18/06:30pm 17.4 17.5 17.4 100 0.0 S 13 19 7 10 1008.4 1008.4 6.2
18/06:00pm 17.5 18.4 17.5 100 0.0 SSE 9 15 5 8 1008.9 1008.9 6.2
18/05:30pm 17.6 17.4 17.6 100 0.0 S 15 20 8 11 1008.2 1008.2 6.2
18/05:00pm 17.6 16.0 17.4 99 0.1 SSW 22 30 12 16 1007.2 1007.2 6.0
18/04:52pm 17.8 16.3 17.8 100 0.0 S 22 32 12 17 1007.0 1007.0 6.0
18/04:30pm 17.8 15.2 17.8 100 0.0 S 28 39 15 21 1004.9 1004.9 6.0
18/04:25pm 17.8 14.4 17.8 100 0.0 S 32 46 17 25 1005.1 1005.1 6.0
18/04:00pm 18.0 15.5 18.0 100 0.0 SW 28 35 15 19 1007.2 1007.2 5.6
18/03:46pm 19.0 21.0 18.8 99 0.1 NNE 6 19 3 10 1008.0 1008.0 1.8
18/03:30pm 19.1 19.8 18.9 99 0.1 SSE 13 24 7 13 1006.0 1006.0 1.4
18/03:00pm 19.1 18.7 18.9 99 0.1 S 19 30 10 16 1004.4 1004.4 1.4
18/02:30pm 19.8 19.8 19.8 100 0.0 SSE 19 30 10 16 1004.3 1004.3 1.4
18/02:00pm 21.9 20.9 17.9 78 2.5 ESE 20 28 11 15 1004.3 1004.3 0.0
18/01:30pm 22.1 21.6 17.7 76 2.7 SE 17 24 9 13 1005.2 1005.2 0.0
18/01:00pm 21.1 20.6 16.9 77 2.6 E 15 20 8 11 1005.7 1005.7 0.0
18/12:30pm 21.2 20.0 17.0 77 2.6 SE 19 26 10 14 1006.3 1006.3 0.0
18/12:00pm 20.2 19.4 17.0 82 2.0 SE 17 24 9 13 1007.0 1007.0 0.0
18/11:30am 20.8 19.8 16.6 77 2.5 S 17 26 9 14 1007.9 1007.9 0.0
18/11:00am 21.2 20.6 17.6 80 2.2 S 17 22 9 12 1008.4 1008.4 0.0
18/10:30am 20.3 17.7 16.9 81 2.1 SSW 26 32 14 17 1008.7 1008.7 0.0

Other Formats:

Comma delimited format used in spreadsheet applications
http://www.bom.gov.au/fwo/IDW60801/IDW60801.95635.axf

JavaScript Object Notation format (JSON) in row-major order
http://www.bom.gov.au/fwo/IDW60801/IDW60801.95635.json